createdAt,value
2023-01-23T00:02:04.969Z,102709.88
2023-01-23T00:04:31.382Z,102713.50
2023-01-23T00:06:57.619Z,102719.03
2023-01-23T00:09:23.874Z,102710.97
2023-01-23T00:11:50.439Z,102717.34
2023-01-23T00:14:17.819Z,102718.44
2023-01-23T00:16:44.335Z,102725.09
2023-01-23T00:19:10.859Z,102715.13
2023-01-23T00:21:37.140Z,102719.84
2023-01-23T00:24:03.769Z,102717.31
2023-01-23T00:26:32.707Z,102719.25
2023-01-23T00:28:59.441Z,102714.00
2023-01-23T00:31:27.451Z,102725.88
2023-01-23T00:33:55.218Z,102717.59
2023-01-23T00:36:21.478Z,102718.69
2023-01-23T00:38:47.688Z,102727.25
2023-01-23T00:41:14.124Z,102726.69
2023-01-23T00:43:40.608Z,102727.50
2023-01-23T00:46:06.929Z,102721.44
2023-01-23T00:48:33.289Z,102729.72
2023-01-23T00:50:59.558Z,102721.69
2023-01-23T00:53:25.837Z,102731.09
2023-01-23T00:55:53.443Z,102731.91
2023-01-23T00:58:19.923Z,102732.75
2023-01-23T01:00:46.377Z,102732.75
2023-01-23T01:03:12.944Z,102729.13
2023-01-23T01:05:39.503Z,102735.78
2023-01-23T01:08:06.078Z,102735.50
2023-01-23T01:10:32.966Z,102745.22
2023-01-23T01:13:00.247Z,102749.63
2023-01-23T01:15:27.048Z,102744.94
2023-01-23T01:17:54.091Z,102747.72
2023-01-23T01:20:25.773Z,102748.28
2023-01-23T01:22:56.228Z,102755.47
2023-01-23T01:25:22.674Z,102751.88
2023-01-23T01:27:49.264Z,102736.41
2023-01-23T01:30:17.128Z,102732.53
2023-01-23T01:32:43.997Z,102719.53
2023-01-23T01:35:10.880Z,102724.22
2023-01-23T01:37:38.167Z,102731.69
2023-01-23T01:40:06.028Z,102741.66
2023-01-23T01:42:38.307Z,102748.28
2023-01-23T01:45:04.763Z,102747.47
2023-01-23T01:47:31.049Z,102750.47
2023-01-23T01:49:59.584Z,102749.91
2023-01-23T01:52:26.397Z,102752.69
2023-01-23T01:54:55.273Z,102752.97
2023-01-23T01:57:34.549Z,102746.00
2023-01-23T02:00:11.999Z,102762.06
2023-01-23T02:03:04.831Z,102760.63
2023-01-23T02:05:34.431Z,102771.13
2023-01-23T02:08:10.980Z,102758.66
2023-01-23T02:10:37.361Z,102764.19
2023-01-23T02:13:19.033Z,102757.28
2023-01-23T02:15:45.484Z,102758.34
2023-01-23T02:18:11.887Z,102758.34
2023-01-23T02:20:38.696Z,102753.66
2023-01-23T02:23:10.669Z,102751.75
2023-01-23T02:25:42.862Z,102758.94
2023-01-23T02:28:10.823Z,102767.22
2023-01-23T02:30:37.807Z,102762.81
2023-01-23T02:33:08.317Z,102768.06
2023-01-23T02:35:35.649Z,102769.41
2023-01-23T02:38:03.376Z,102774.94
2023-01-23T02:40:38.126Z,102774.13
2023-01-23T02:43:05.465Z,102783.25
2023-01-23T02:45:32.614Z,102786.00
2023-01-23T02:48:01.361Z,102781.31
2023-01-23T02:50:28.176Z,102786.84
2023-01-23T02:52:54.794Z,102789.59
2023-01-23T02:55:21.822Z,102788.53
2023-01-23T02:57:48.071Z,102787.41
2023-01-23T03:00:20.134Z,102786.31
2023-01-23T03:02:50.784Z,102789.91
2023-01-23T03:05:17.998Z,102783.56
2023-01-23T03:07:44.481Z,102781.63
2023-01-23T03:10:11.706Z,102780.50
2023-01-23T03:12:42.570Z,102781.38
2023-01-23T03:15:09.385Z,102780.78
2023-01-23T03:17:36.490Z,102779.69
2023-01-23T03:20:04.218Z,102785.22
2023-01-23T03:22:30.552Z,102781.38
2023-01-23T03:24:57.793Z,102784.13
2023-01-23T03:27:24.339Z,102776.66
2023-01-23T03:30:09.532Z,102779.44
2023-01-23T03:32:37.385Z,102782.19
2023-01-23T03:35:03.830Z,102772.53
2023-01-23T03:37:30.254Z,102773.34
2023-01-23T03:40:15.266Z,102781.66
2023-01-23T03:42:41.590Z,102783.31
2023-01-23T03:45:07.933Z,102775.88
2023-01-23T03:47:34.261Z,102775.59
2023-01-23T03:50:00.560Z,102788.06
2023-01-23T03:52:26.899Z,102786.16
2023-01-23T03:54:53.108Z,102786.16
2023-01-23T03:57:19.567Z,102787.81
2023-01-23T03:59:45.835Z,102784.22
2023-01-23T04:02:12.139Z,102779.50
2023-01-23T04:04:38.412Z,102785.28
2023-01-23T04:07:05.504Z,102782.53
2023-01-23T04:09:32.013Z,102786.97
2023-01-23T04:11:58.931Z,102778.69
2023-01-23T04:14:26.442Z,102782.00
2023-01-23T04:16:53.881Z,102782.84
2023-01-23T04:19:20.782Z,102786.44
2023-01-23T04:21:48.553Z,102793.91
2023-01-23T04:24:18.075Z,102801.91
2023-01-23T04:26:44.997Z,102807.44
2023-01-23T04:29:11.381Z,102805.78
2023-01-23T04:31:37.913Z,102812.97
2023-01-23T04:34:04.297Z,102815.19
2023-01-23T04:36:30.540Z,102811.31
2023-01-23T04:38:56.809Z,102813.25
2023-01-23T04:41:24.663Z,102807.72
2023-01-23T04:43:50.935Z,102803.84
2023-01-23T04:46:17.305Z,102802.78
2023-01-23T04:48:43.594Z,102804.44
2023-01-23T04:51:09.877Z,102799.47
2023-01-23T04:53:36.171Z,102801.41
2023-01-23T04:56:02.840Z,102792.00
2023-01-23T04:58:29.097Z,102794.75
2023-01-23T05:01:00.848Z,102795.59
2023-01-23T05:03:27.211Z,102780.69
2023-01-23T05:05:53.468Z,102795.34
2023-01-23T05:08:19.727Z,102800.88
2023-01-23T05:10:46.029Z,102792.59
2023-01-23T05:13:12.272Z,102797.00
2023-01-23T05:15:38.590Z,102798.94
2023-01-23T05:18:05.092Z,102804.19
2023-01-23T05:20:31.515Z,102794.78
2023-01-23T05:22:58.673Z,102794.78
2023-01-23T05:25:27.381Z,102794.56
2023-01-23T05:27:53.715Z,102790.09
2023-01-23T05:30:21.308Z,102793.72
2023-01-23T05:32:47.830Z,102805.88
2023-01-23T05:35:14.543Z,102809.47
2023-01-23T05:37:41.347Z,102820.53
2023-01-23T05:40:09.418Z,102818.31
2023-01-23T05:42:35.855Z,102812.78
2023-01-23T05:45:02.139Z,102819.13
2023-01-23T05:47:28.473Z,102826.34
2023-01-23T05:49:54.925Z,102828.00
2023-01-23T05:52:22.038Z,102838.81
2023-01-23T05:54:48.508Z,102827.75
2023-01-23T05:57:14.971Z,102826.66
2023-01-23T05:59:41.267Z,102824.44
2023-01-23T06:02:07.715Z,102828.03
2023-01-23T06:04:34.096Z,102835.25
2023-01-23T06:07:00.565Z,102836.91
2023-01-23T06:09:26.823Z,102838.03
2023-01-23T06:11:53.129Z,102844.38
2023-01-23T06:14:19.396Z,102841.88
2023-01-23T06:16:45.681Z,102839.97
2023-01-23T06:19:12.079Z,102844.63
2023-01-23T06:21:38.425Z,102843.56
2023-01-23T06:24:04.806Z,102849.91
2023-01-23T06:26:31.071Z,102856.56
2023-01-23T06:28:57.299Z,102859.56
2023-01-23T06:31:23.876Z,102850.44
2023-01-23T06:33:51.277Z,102850.72
2023-01-23T06:36:17.820Z,102849.28
2023-01-23T06:38:44.264Z,102864.22
2023-01-23T06:41:10.554Z,102863.41
2023-01-23T06:43:36.848Z,102870.03
2023-01-23T06:46:03.209Z,102864.75
2023-01-23T06:48:29.674Z,102879.44
2023-01-23T06:50:59.532Z,102884.38
2023-01-23T06:53:25.863Z,102883.56
2023-01-23T06:55:52.159Z,102889.09
2023-01-23T06:58:18.646Z,102893.78
2023-01-23T07:00:45.434Z,102890.44
2023-01-23T07:03:12.147Z,102891.03
2023-01-23T07:05:40.375Z,102891.03
2023-01-23T07:08:07.184Z,102894.34
2023-01-23T07:10:33.713Z,102896.03
2023-01-23T07:12:59.948Z,102898.53
2023-01-23T07:15:26.217Z,102896.91
2023-01-23T07:17:52.949Z,102903.84
2023-01-23T07:20:19.715Z,102910.19
2023-01-23T07:22:46.117Z,102911.31
2023-01-23T07:25:12.391Z,102916.00
2023-01-23T07:27:38.682Z,102916.00
2023-01-23T07:30:05.994Z,102922.38
2023-01-23T07:32:32.411Z,102930.94
2023-01-23T07:34:58.920Z,102938.13
2023-01-23T07:37:25.165Z,102939.25
2023-01-23T07:39:54.021Z,102940.06
2023-01-23T07:42:20.294Z,102935.66
2023-01-23T07:44:46.749Z,102943.94
2023-01-23T07:47:13.025Z,102937.00
2023-01-23T07:49:39.448Z,102943.63
2023-01-23T07:52:05.751Z,102940.59
2023-01-23T07:54:32.440Z,102947.78
2023-01-23T07:56:58.672Z,102933.13
2023-01-23T07:59:24.923Z,102943.34
2023-01-23T08:01:52.457Z,102938.66
2023-01-23T08:04:19.501Z,102944.78
2023-01-23T08:06:45.867Z,102937.31
2023-01-23T08:09:12.826Z,102943.41
2023-01-23T08:11:39.526Z,102946.75
2023-01-23T08:14:05.870Z,102949.25
2023-01-23T08:16:32.482Z,102955.09
2023-01-23T08:18:58.898Z,102965.91
2023-01-23T08:21:25.259Z,102972.84
2023-01-23T08:23:51.620Z,102968.97
2023-01-23T08:26:17.906Z,102956.81
2023-01-23T08:28:45.401Z,102953.53
2023-01-23T08:31:12.630Z,102962.38
2023-01-23T08:33:39.485Z,102958.28
2023-01-23T08:36:06.325Z,102964.38
2023-01-23T08:38:33.276Z,102952.47
2023-01-23T08:41:00.504Z,102958.84
2023-01-23T08:43:27.052Z,102957.72
2023-01-23T08:45:54.927Z,102954.72
2023-01-23T08:48:22.392Z,102963.03
2023-01-23T08:50:49.299Z,102964.69
2023-01-23T08:53:15.816Z,102964.41
2023-01-23T08:55:42.367Z,102972.44
2023-01-23T08:58:09.553Z,102975.22
2023-01-23T09:00:36.218Z,102968.84
2023-01-23T09:03:03.418Z,102972.44
2023-01-23T09:05:30.347Z,102965.00
2023-01-23T09:07:59.797Z,102961.97
2023-01-23T09:10:26.306Z,102960.03
2023-01-23T09:12:53.535Z,102965.28
2023-01-23T09:15:20.044Z,102967.53
2023-01-23T09:17:46.275Z,102969.78
2023-01-23T09:20:12.899Z,102969.50
2023-01-23T09:22:42.177Z,102969.25
2023-01-23T09:25:08.710Z,102969.81
2023-01-23T09:27:35.119Z,102969.00
2023-01-23T09:30:01.588Z,102970.09
2023-01-23T09:32:27.831Z,102977.91
2023-01-23T09:34:54.814Z,102985.69
2023-01-23T09:37:21.129Z,102973.81
2023-01-23T09:39:47.367Z,102968.31
2023-01-23T09:42:16.756Z,102971.34
2023-01-23T09:44:47.169Z,102987.19
2023-01-23T09:47:17.420Z,102984.72
2023-01-23T09:49:58.112Z,102987.81
2023-01-23T09:52:26.449Z,102992.78
2023-01-23T09:55:00.194Z,103006.41
2023-01-23T09:57:29.838Z,102993.69
2023-01-23T10:00:01.086Z,103000.34
2023-01-23T10:02:27.844Z,103005.63
2023-01-23T10:04:55.134Z,102994.56
2023-01-23T10:07:21.402Z,103003.44
2023-01-23T10:10:07.125Z,102998.19
2023-01-23T10:12:40.399Z,102998.75
2023-01-23T10:15:18.130Z,103004.31
2023-01-23T10:17:51.956Z,103006.84
2023-01-23T10:20:33.592Z,103010.44
2023-01-23T10:23:10.715Z,103011.00
2023-01-23T10:25:38.251Z,103008.78
2023-01-23T10:28:17.001Z,103011.84
2023-01-23T10:30:47.076Z,103007.41
2023-01-23T10:33:14.895Z,103010.44
2023-01-23T10:35:50.756Z,103008.78
2023-01-23T10:38:26.414Z,103013.22
2023-01-23T10:41:11.578Z,103022.09
2023-01-23T10:43:37.946Z,103021.53
2023-01-23T10:46:30.723Z,103017.94
2023-01-23T10:48:59.269Z,103007.09
2023-01-23T10:51:43.820Z,103009.31
2023-01-23T10:54:31.240Z,103010.44
2023-01-23T10:56:58.445Z,103009.00
2023-01-23T10:59:24.654Z,103013.19
2023-01-23T11:01:57.634Z,102997.91
2023-01-23T11:04:25.571Z,102998.75
2023-01-23T11:07:01.123Z,102993.22
2023-01-23T11:09:27.674Z,102995.75
2023-01-23T11:12:06.710Z,102995.47
2023-01-23T11:14:33.419Z,102995.75
2023-01-23T11:17:11.972Z,102991.56
2023-01-23T11:19:38.210Z,102992.41
2023-01-23T11:22:05.660Z,102997.72
2023-01-23T11:24:40.459Z,102989.38
2023-01-23T11:27:28.707Z,102985.78
2023-01-23T11:30:16.564Z,102984.94
2023-01-23T11:32:58.227Z,102977.16
2023-01-23T11:35:44.793Z,102975.75
2023-01-23T11:38:12.639Z,102969.97
2023-01-23T11:40:39.556Z,102965.81
2023-01-23T11:43:12.796Z,102966.63
2023-01-23T11:45:43.532Z,102966.38
2023-01-23T11:48:24.979Z,102978.31
2023-01-23T11:50:56.400Z,102973.06
2023-01-23T11:53:42.260Z,102982.78
2023-01-23T11:56:12.330Z,102977.56
2023-01-23T11:58:49.062Z,102981.72
2023-01-23T12:01:29.000Z,102982.56
2023-01-23T12:03:58.308Z,102973.16
2023-01-23T12:06:48.247Z,102972.31
2023-01-23T12:09:18.472Z,102965.66
2023-01-23T12:12:03.939Z,102980.63
2023-01-23T12:14:30.283Z,102975.06
2023-01-23T12:17:01.924Z,102967.34
2023-01-23T12:19:46.960Z,102958.19
2023-01-23T12:22:27.077Z,102962.34
2023-01-23T12:25:01.351Z,102965.69
2023-01-23T12:27:34.320Z,102975.38
2023-01-23T12:30:11.856Z,102973.19
2023-01-23T12:32:51.492Z,102967.09
2023-01-23T12:35:38.012Z,102971.28
2023-01-23T12:38:17.409Z,102970.16
2023-01-23T12:40:48.601Z,102960.72
2023-01-23T12:43:31.501Z,102969.88
2023-01-23T12:46:03.446Z,102971.28
2023-01-23T12:48:33.011Z,102962.38
2023-01-23T12:51:06.328Z,102970.16
2023-01-23T12:53:37.374Z,102979.56
2023-01-23T12:56:15.867Z,102983.47
2023-01-23T12:58:53.830Z,102990.91
2023-01-23T13:01:31.544Z,102985.38
2023-01-23T13:04:04.289Z,102979.00
2023-01-23T13:06:34.733Z,102978.44
2023-01-23T13:09:17.794Z,102975.38
2023-01-23T13:12:02.952Z,102979.28
2023-01-23T13:14:47.540Z,102986.75
2023-01-23T13:17:38.297Z,102985.66
2023-01-23T13:20:41.792Z,102987.59
2023-01-23T13:23:27.073Z,102995.09
2023-01-23T13:26:30.162Z,102987.59
2023-01-23T13:28:57.761Z,102981.22
2023-01-23T13:31:46.261Z,102990.91
2023-01-23T13:34:16.490Z,102992.03
2023-01-23T13:36:47.709Z,102989.25
2023-01-23T13:39:17.156Z,102999.25
2023-01-23T13:41:44.528Z,102989.00
2023-01-23T13:44:21.421Z,102987.31
2023-01-23T14:21:41.025Z,102998.13
2023-01-23T14:24:20.162Z,103000.31
2023-01-23T14:26:50.533Z,103002.28
2023-01-23T14:29:21.375Z,102997.25
2023-01-23T14:31:47.989Z,103008.34
2023-01-23T14:34:18.652Z,103011.13
2023-01-23T14:36:53.639Z,103008.34
2023-01-23T14:39:22.520Z,103010.03
2023-01-23T14:41:49.870Z,103016.41
2023-01-23T14:44:24.344Z,103016.41
2023-01-23T14:46:54.850Z,103012.81
2023-01-23T14:49:25.005Z,103016.41
2023-01-23T14:51:59.961Z,103012.81
2023-01-23T14:54:32.584Z,103015.59
2023-01-23T14:57:00.920Z,103011.13
2023-01-23T14:59:29.965Z,103015.59
2023-01-23T15:01:57.243Z,103014.75
2023-01-23T15:04:24.533Z,103016.66
2023-01-23T15:06:55.897Z,103011.41
2023-01-23T15:09:29.351Z,103015.81
2023-01-23T15:11:56.949Z,103016.66
2023-01-23T15:14:25.443Z,103015.31
2023-01-23T15:16:58.867Z,103005.03
2023-01-23T15:19:25.758Z,103005.88
2023-01-23T15:22:04.439Z,103005.03
2023-01-23T15:24:30.677Z,103018.91
2023-01-23T15:26:58.584Z,103010.88
2023-01-23T15:29:26.075Z,103010.88
2023-01-23T15:31:53.551Z,103011.97
2023-01-23T15:34:22.836Z,103011.97
2023-01-23T15:36:49.159Z,103019.44
2023-01-23T15:39:18.326Z,103015.59
2023-01-23T15:41:47.505Z,103013.63
2023-01-23T15:44:15.194Z,103014.75
2023-01-23T15:46:41.727Z,103018.59
2023-01-23T15:49:16.443Z,103021.38
2023-01-23T15:51:50.504Z,103023.59
2023-01-23T15:54:20.440Z,103021.94
2023-01-23T15:56:48.803Z,103018.03
2023-01-23T15:59:18.207Z,103031.09
2023-01-23T16:01:44.567Z,103026.66
2023-01-23T16:04:10.865Z,103018.31
2023-01-23T16:06:38.084Z,103016.63
2023-01-23T16:09:05.960Z,103013.88
2023-01-23T16:11:34.097Z,103009.41
2023-01-23T16:14:01.097Z,103007.72
2023-01-23T16:16:27.502Z,103000.53
2023-01-23T16:18:53.755Z,102998.28
2023-01-23T16:21:21.216Z,103004.09
2023-01-23T16:23:48.077Z,102994.38
2023-01-23T16:26:20.171Z,102997.16
2023-01-23T16:28:46.499Z,102993.00
2023-01-23T16:31:13.702Z,102998.78
2023-01-23T16:33:40.327Z,102989.91
2023-01-23T16:36:06.983Z,102988.50
2023-01-23T16:38:33.703Z,102987.66
2023-01-23T16:41:01.400Z,102974.91
2023-01-23T16:43:28.144Z,102987.94
2023-01-23T16:45:56.511Z,102987.41
2023-01-23T16:48:27.893Z,102998.47
2023-01-23T16:51:00.727Z,102996.25
2023-01-23T16:53:32.925Z,102999.03
2023-01-23T16:56:01.985Z,102997.09
2023-01-23T16:58:29.695Z,102998.19
2023-01-23T17:01:01.471Z,103013.72
2023-01-23T17:03:29.654Z,103003.75
2023-01-23T17:05:56.373Z,103000.97
2023-01-23T17:08:24.138Z,102997.38
2023-01-23T17:10:52.930Z,102995.72
2023-01-23T17:13:20.863Z,103003.19
2023-01-23T17:15:48.129Z,103004.03
2023-01-23T17:18:22.608Z,103001.50
2023-01-23T17:20:49.121Z,103010.66
2023-01-23T17:23:18.036Z,103012.59
2023-01-23T17:25:59.780Z,103000.94
2023-01-23T17:28:26.621Z,102996.75
2023-01-23T17:30:54.280Z,102994.00
2023-01-23T17:33:22.461Z,103002.31
2023-01-23T17:35:49.502Z,102997.03
2023-01-23T17:38:17.863Z,102996.22
2023-01-23T17:40:45.092Z,103001.19
2023-01-23T17:43:12.505Z,103000.09
2023-01-23T17:45:39.573Z,102989.53
2023-01-23T17:48:08.852Z,102994.22
2023-01-23T17:50:35.699Z,102995.34
2023-01-23T17:53:01.956Z,102991.47
2023-01-23T17:55:32.781Z,102988.13
2023-01-23T17:57:59.106Z,102983.44
2023-01-23T18:00:27.274Z,102977.31
2023-01-23T18:02:57.630Z,102978.13
2023-01-23T18:05:24.391Z,102978.13
2023-01-23T18:07:54.014Z,102993.09
2023-01-23T18:10:22.242Z,102996.13
2023-01-23T18:13:00.277Z,103002.78
2023-01-23T18:15:45.612Z,103004.72
2023-01-23T18:18:32.206Z,103001.09
2023-01-23T18:20:59.413Z,103000.25
2023-01-23T18:23:26.881Z,102996.94
2023-01-23T18:26:01.597Z,103002.19
2023-01-23T18:28:31.619Z,102992.22
2023-01-23T18:31:07.416Z,102986.97
2023-01-23T18:33:36.602Z,102997.78
2023-01-23T18:36:07.032Z,102995.00
2023-01-23T18:38:33.876Z,102996.09
2023-01-23T18:41:00.167Z,102996.09
2023-01-23T18:43:39.739Z,103006.91
2023-01-23T18:46:11.791Z,103000.25
2023-01-23T18:48:40.472Z,103007.50
2023-01-23T18:51:21.552Z,103006.41
2023-01-23T18:53:50.815Z,103005.28
2023-01-23T18:56:22.187Z,103010.00
2023-01-23T18:58:55.723Z,103019.13
2023-01-23T19:01:41.588Z,103014.44
2023-01-23T19:04:13.554Z,103009.16
2023-01-23T19:06:41.139Z,103010.81
2023-01-23T19:09:15.885Z,103013.88
2023-01-23T19:11:50.550Z,103020.50
2023-01-23T19:14:23.323Z,103024.38
2023-01-23T19:16:56.938Z,103037.38
2023-01-23T19:19:37.855Z,103031.84
2023-01-23T19:22:09.015Z,103033.78
2023-01-23T19:24:35.400Z,103042.09
2023-01-23T19:27:01.724Z,103034.91
2023-01-23T19:29:28.222Z,103039.31
2023-01-23T19:32:04.591Z,103035.13
2023-01-23T19:34:31.782Z,103037.66
2023-01-23T19:36:58.207Z,103037.38
2023-01-23T19:39:24.625Z,103042.94
2023-01-23T19:41:51.878Z,103046.22
2023-01-23T19:44:19.530Z,103052.34
2023-01-23T19:46:46.143Z,103055.13
2023-01-23T19:49:13.595Z,103055.13
2023-01-23T19:51:40.231Z,103058.44
2023-01-23T19:54:09.774Z,103048.19
2023-01-23T19:56:36.150Z,103056.50
2023-01-23T19:59:02.775Z,103059.03
2023-01-23T20:01:40.400Z,103050.44
2023-01-23T20:04:15.783Z,103056.00
2023-01-23T20:06:42.959Z,103050.44
2023-01-23T20:09:10.951Z,103054.06
2023-01-23T20:11:37.383Z,103060.97
2023-01-23T20:14:03.951Z,103065.69
2023-01-23T20:16:30.447Z,103069.53
2023-01-23T20:18:56.959Z,103072.06
2023-01-23T20:21:25.400Z,103075.06
2023-01-23T20:23:52.178Z,103070.34
2023-01-23T20:26:19.853Z,103073.72
2023-01-23T20:28:46.983Z,103074.00
2023-01-23T20:31:13.863Z,103075.06
2023-01-23T20:33:40.731Z,103080.88
2023-01-23T20:36:07.999Z,103080.06
2023-01-23T20:38:34.681Z,103083.94
2023-01-23T20:41:11.146Z,103083.63
2023-01-23T20:43:39.023Z,103084.44
2023-01-23T20:46:06.499Z,103085.56
2023-01-23T20:48:33.937Z,103079.69
2023-01-23T20:51:00.397Z,103074.16
2023-01-23T20:53:34.752Z,103078.03
2023-01-23T20:56:11.675Z,103070.00
2023-01-23T20:58:58.084Z,103068.06
2023-01-23T21:01:26.280Z,103070.81
2023-01-23T21:03:52.795Z,103064.44
2023-01-23T21:06:19.314Z,103063.59
2023-01-23T21:08:46.104Z,103065.28
2023-01-23T21:11:19.606Z,103066.13
2023-01-23T21:13:50.294Z,103066.69
2023-01-23T21:16:16.890Z,103064.19
2023-01-23T21:18:46.050Z,103065.00
2023-01-23T21:21:16.918Z,103056.69
2023-01-23T21:23:45.593Z,103063.34
2023-01-23T21:26:12.320Z,103067.78
2023-01-23T21:28:39.098Z,103068.06
2023-01-23T21:31:19.162Z,103068.31
2023-01-23T21:33:46.828Z,103074.66
2023-01-23T21:36:14.948Z,103074.44
2023-01-23T21:38:41.549Z,103076.38
2023-01-23T21:41:10.248Z,103075.53
2023-01-23T21:43:36.580Z,103072.75
2023-01-23T21:46:03.222Z,103070.00
2023-01-23T21:48:30.430Z,103070.00
2023-01-23T21:51:07.085Z,103062.75
2023-01-23T21:53:33.496Z,103073.28
2023-01-23T21:55:59.836Z,103062.72
2023-01-23T21:58:26.325Z,103069.94
2023-01-23T22:01:14.861Z,103062.47
2023-01-23T22:03:41.165Z,103074.63
2023-01-23T22:06:07.689Z,103074.63
2023-01-23T22:08:34.419Z,103071.84
2023-01-23T22:11:00.901Z,103071.84
2023-01-23T22:13:27.229Z,103059.94
2023-01-23T22:15:56.054Z,103065.25
2023-01-23T22:18:22.553Z,103067.19
2023-01-23T22:20:53.061Z,103059.94
2023-01-23T22:23:19.532Z,103069.38
2023-01-23T22:25:47.149Z,103062.16
2023-01-23T22:28:13.456Z,103064.94
2023-01-23T22:33:14.492Z,103063.50
2023-01-23T22:35:41.374Z,103065.19
2023-01-23T22:38:08.799Z,103064.09
2023-01-23T22:40:35.751Z,103063.50
2023-01-23T22:43:02.646Z,103057.97
2023-01-23T22:45:28.928Z,103064.34
2023-01-23T22:47:55.174Z,103058.81
2023-01-23T22:50:21.443Z,103056.03
2023-01-23T22:52:47.771Z,103057.13
2023-01-23T22:55:14.236Z,103056.31
2023-01-23T22:57:40.500Z,103056.84
2023-01-23T23:00:09.242Z,103056.84
2023-01-23T23:02:35.672Z,103059.88
2023-01-23T23:05:01.911Z,103055.16
2023-01-23T23:07:28.124Z,103068.44
2023-01-23T23:09:54.539Z,103068.72
2023-01-23T23:12:20.811Z,103065.94
2023-01-23T23:14:47.235Z,103062.59
2023-01-23T23:17:13.463Z,103060.66
2023-01-23T23:19:39.878Z,103070.06
2023-01-23T23:22:06.339Z,103063.69
2023-01-23T23:24:32.760Z,103060.09
2023-01-23T23:26:59.374Z,103065.34
2023-01-23T23:29:25.810Z,103057.31
2023-01-23T23:31:52.255Z,103057.88
2023-01-23T23:34:19.082Z,103059.53
2023-01-23T23:36:45.388Z,103072.00
2023-01-23T23:39:11.712Z,103064.53
2023-01-23T23:41:37.958Z,103062.59
2023-01-23T23:44:04.512Z,103065.34
2023-01-23T23:46:31.103Z,103068.13
2023-01-23T23:48:57.459Z,103074.50
2023-01-23T23:51:26.384Z,103075.03
2023-01-23T23:53:52.945Z,103075.59
2023-01-23T23:56:21.528Z,103074.75
2023-01-23T23:58:48.026Z,103070.56
